sensor_id;sensor_type;location;lat;lon;timestamp;pressure;altitude;pressure_sealevel;temperature;humidity
9676;BME280;4876;42.656;23.292;2023-08-12T00:00:09;94934.75;;;18.02;72.66
9676;BME280;4876;42.656;23.292;2023-08-12T00:02:37;94940.84;;;18.02;72.64
9676;BME280;4876;42.656;23.292;2023-08-12T00:05:05;94936.03;;;18.08;72.60
9676;BME280;4876;42.656;23.292;2023-08-12T00:07:32;94930.09;;;17.99;72.32
9676;BME280;4876;42.656;23.292;2023-08-12T00:09:59;94940.75;;;17.99;72.33
9676;BME280;4876;42.656;23.292;2023-08-12T00:12:27;94936.13;;;17.96;72.30
9676;BME280;4876;42.656;23.292;2023-08-12T00:14:54;94941.75;;;17.94;72.56
9676;BME280;4876;42.656;23.292;2023-08-12T00:17:22;94942.22;;;17.96;72.58
9676;BME280;4876;42.656;23.292;2023-08-12T00:19:48;94937.78;;;17.88;72.40
9676;BME280;4876;42.656;23.292;2023-08-12T00:22:15;94937.47;;;17.90;72.09
9676;BME280;4876;42.656;23.292;2023-08-12T00:24:42;94937.19;;;17.95;72.06
9676;BME280;4876;42.656;23.292;2023-08-12T00:27:10;94929.50;;;17.90;72.28
9676;BME280;4876;42.656;23.292;2023-08-12T00:29:38;94931.69;;;17.88;72.46
9676;BME280;4876;42.656;23.292;2023-08-12T00:32:05;94925.53;;;17.84;72.61
9676;BME280;4876;42.656;23.292;2023-08-12T00:34:31;94927.06;;;17.85;72.55
9676;BME280;4876;42.656;23.292;2023-08-12T00:36:58;94926.44;;;17.75;72.60
9676;BME280;4876;42.656;23.292;2023-08-12T00:39:25;94927.75;;;17.82;72.63
9676;BME280;4876;42.656;23.292;2023-08-12T00:41:52;94924.91;;;17.74;72.48
9676;BME280;4876;42.656;23.292;2023-08-12T00:44:20;94921.91;;;17.76;72.80
9676;BME280;4876;42.656;23.292;2023-08-12T00:46:48;94910.19;;;17.65;73.05
9676;BME280;4876;42.656;23.292;2023-08-12T00:49:16;94927.13;;;17.72;73.23
9676;BME280;4876;42.656;23.292;2023-08-12T00:51:44;94928.25;;;17.71;73.47
9676;BME280;4876;42.656;23.292;2023-08-12T00:54:13;94923.56;;;17.68;73.52
9676;BME280;4876;42.656;23.292;2023-08-12T00:56:40;94920.53;;;17.54;73.84
9676;BME280;4876;42.656;23.292;2023-08-12T00:59:08;94917.72;;;17.63;73.50
9676;BME280;4876;42.656;23.292;2023-08-12T01:01:39;94922.19;;;17.59;72.90
9676;BME280;4876;42.656;23.292;2023-08-12T01:04:08;94914.97;;;17.59;72.43
9676;BME280;4876;42.656;23.292;2023-08-12T01:06:35;94905.47;;;17.58;72.27
9676;BME280;4876;42.656;23.292;2023-08-12T01:09:03;94923.16;;;17.66;72.53
9676;BME280;4876;42.656;23.292;2023-08-12T01:11:36;94917.63;;;17.71;71.90
9676;BME280;4876;42.656;23.292;2023-08-12T01:14:09;94920.13;;;17.52;72.23
9676;BME280;4876;42.656;23.292;2023-08-12T01:16:43;94914.97;;;17.59;72.01
9676;BME280;4876;42.656;23.292;2023-08-12T01:19:20;94913.69;;;17.53;72.29
9676;BME280;4876;42.656;23.292;2023-08-12T01:21:52;94912.22;;;17.56;71.91
9676;BME280;4876;42.656;23.292;2023-08-12T01:24:21;94912.38;;;17.47;71.93
9676;BME280;4876;42.656;23.292;2023-08-12T01:26:48;94912.22;;;17.56;71.49
9676;BME280;4876;42.656;23.292;2023-08-12T01:29:15;94906.31;;;17.62;71.31
9676;BME280;4876;42.656;23.292;2023-08-12T01:31:45;94906.13;;;17.55;71.27
9676;BME280;4876;42.656;23.292;2023-08-12T01:34:20;94914.63;;;17.33;71.49
9676;BME280;4876;42.656;23.292;2023-08-12T01:36:54;94905.28;;;17.39;71.20
9676;BME280;4876;42.656;23.292;2023-08-12T01:39:26;94898.88;;;17.40;70.74
9676;BME280;4876;42.656;23.292;2023-08-12T01:41:54;94897.81;;;17.29;70.58
9676;BME280;4876;42.656;23.292;2023-08-12T01:44:22;94905.78;;;17.29;70.62
9676;BME280;4876;42.656;23.292;2023-08-12T01:46:49;94902.41;;;17.44;70.48
9676;BME280;4876;42.656;23.292;2023-08-12T01:49:16;94903.47;;;17.27;70.41
9676;BME280;4876;42.656;23.292;2023-08-12T01:51:43;94905.41;;;17.14;70.70
9676;BME280;4876;42.656;23.292;2023-08-12T01:54:09;94911.19;;;17.04;71.00
9676;BME280;4876;42.656;23.292;2023-08-12T01:56:38;94912.50;;;17.10;70.56
9676;BME280;4876;42.656;23.292;2023-08-12T01:59:04;94905.72;;;17.13;70.44
9676;BME280;4876;42.656;23.292;2023-08-12T02:01:31;94906.94;;;17.15;70.82
9676;BME280;4876;42.656;23.292;2023-08-12T02:03:58;94898.63;;;17.17;70.67
9676;BME280;4876;42.656;23.292;2023-08-12T02:06:24;94910.50;;;17.07;70.59
9676;BME280;4876;42.656;23.292;2023-08-12T02:08:51;94915.56;;;17.12;69.48
9676;BME280;4876;42.656;23.292;2023-08-12T02:11:18;94903.50;;;17.15;69.12
9676;BME280;4876;42.656;23.292;2023-08-12T02:13:46;94907.38;;;17.17;69.63
9676;BME280;4876;42.656;23.292;2023-08-12T02:16:13;94903.50;;;17.15;69.80
9676;BME280;4876;42.656;23.292;2023-08-12T02:18:40;94910.06;;;17.05;69.71
9676;BME280;4876;42.656;23.292;2023-08-12T02:21:07;94896.97;;;17.12;69.48
9676;BME280;4876;42.656;23.292;2023-08-12T02:23:34;94897.31;;;17.11;69.62
9676;BME280;4876;42.656;23.292;2023-08-12T02:26:01;94901.53;;;17.12;69.48
9676;BME280;4876;42.656;23.292;2023-08-12T02:28:29;94904.28;;;17.15;69.59
9676;BME280;4876;42.656;23.292;2023-08-12T02:30:57;94902.75;;;17.14;69.87
9676;BME280;4876;42.656;23.292;2023-08-12T02:33:24;94904.88;;;17.09;69.39
9676;BME280;4876;42.656;23.292;2023-08-12T02:35:53;94902.75;;;17.14;68.97
9676;BME280;4876;42.656;23.292;2023-08-12T02:38:20;94903.13;;;17.29;68.80
9676;BME280;4876;42.656;23.292;2023-08-12T02:40:48;94893.84;;;17.22;68.79
9676;BME280;4876;42.656;23.292;2023-08-12T02:43:15;94907.88;;;17.35;68.35
9676;BME280;4876;42.656;23.292;2023-08-12T02:45:42;94911.34;;;17.23;68.52
9676;BME280;4876;42.656;23.292;2023-08-12T02:48:11;94917.47;;;17.12;68.73
9676;BME280;4876;42.656;23.292;2023-08-12T02:50:38;94917.84;;;17.26;69.09
9676;BME280;4876;42.656;23.292;2023-08-12T02:53:05;94913.78;;;17.29;68.81
9676;BME280;4876;42.656;23.292;2023-08-12T02:55:32;94918.13;;;17.21;68.33
9676;BME280;4876;42.656;23.292;2023-08-12T02:57:59;94916.53;;;17.20;68.34
9676;BME280;4876;42.656;23.292;2023-08-12T03:00:26;94915.19;;;17.26;68.48
9676;BME280;4876;42.656;23.292;2023-08-12T03:02:53;94910.00;;;17.30;68.47
9676;BME280;4876;42.656;23.292;2023-08-12T03:05:21;94918.44;;;17.19;68.09
9676;BME280;4876;42.656;23.292;2023-08-12T03:07:48;94909.78;;;17.22;68.50
9676;BME280;4876;42.656;23.292;2023-08-12T03:10:17;94915.78;;;17.19;68.56
9676;BME280;4876;42.656;23.292;2023-08-12T03:12:44;94918.19;;;17.25;68.64
9676;BME280;4876;42.656;23.292;2023-08-12T03:15:11;94915.69;;;17.16;68.69
9676;BME280;4876;42.656;23.292;2023-08-12T03:17:37;94926.41;;;17.19;68.81
9676;BME280;4876;42.656;23.292;2023-08-12T03:20:06;94924.00;;;17.14;69.17
9676;BME280;4876;42.656;23.292;2023-08-12T03:22:35;94932.28;;;17.13;68.91
9676;BME280;4876;42.656;23.292;2023-08-12T03:25:03;94926.66;;;17.14;68.69
9676;BME280;4876;42.656;23.292;2023-08-12T03:27:30;94925.97;;;17.17;68.49
9676;BME280;4876;42.656;23.292;2023-08-12T03:29:57;94922.75;;;17.24;68.36
9676;BME280;4876;42.656;23.292;2023-08-12T03:32:24;94922.28;;;17.34;68.15
9676;BME280;4876;42.656;23.292;2023-08-12T03:34:51;94925.72;;;17.35;67.95
9676;BME280;4876;42.656;23.292;2023-08-12T03:37:18;94924.13;;;17.46;67.71
9676;BME280;4876;42.656;23.292;2023-08-12T03:39:46;94925.47;;;17.68;67.46
9676;BME280;4876;42.656;23.292;2023-08-12T03:42:13;94934.03;;;17.89;66.27
9676;BME280;4876;42.656;23.292;2023-08-12T03:44:42;94939.63;;;18.32;65.54
9676;BME280;4876;42.656;23.292;2023-08-12T03:47:09;94929.41;;;18.65;64.30
9676;BME280;4876;42.656;23.292;2023-08-12T03:49:35;94934.47;;;19.21;63.00
9676;BME280;4876;42.656;23.292;2023-08-12T03:52:02;94942.91;;;19.62;61.70
9676;BME280;4876;42.656;23.292;2023-08-12T03:54:30;94946.53;;;19.93;60.71
9676;BME280;4876;42.656;23.292;2023-08-12T03:56:58;94940.81;;;20.36;60.08
9676;BME280;4876;42.656;23.292;2023-08-12T03:59:24;94947.72;;;20.60;59.00
9676;BME280;4876;42.656;23.292;2023-08-12T04:01:51;94943.56;;;20.89;58.34
9676;BME280;4876;42.656;23.292;2023-08-12T04:04:18;94942.97;;;21.60;57.72
9676;BME280;4876;42.656;23.292;2023-08-12T04:06:45;94943.41;;;21.62;55.22
9676;BME280;4876;42.656;23.292;2023-08-12T04:09:13;94940.41;;;22.04;54.15
9676;BME280;4876;42.656;23.292;2023-08-12T04:11:40;94945.63;;;22.27;53.86
9676;BME280;4876;42.656;23.292;2023-08-12T04:14:09;94939.22;;;22.01;55.33
9676;BME280;4876;42.656;23.292;2023-08-12T04:16:35;94946.84;;;21.62;57.13
9676;BME280;4876;42.656;23.292;2023-08-12T04:19:03;94943.63;;;21.83;56.73
9676;BME280;4876;42.656;23.292;2023-08-12T04:21:29;94938.50;;;22.45;55.05
9676;BME280;4876;42.656;23.292;2023-08-12T04:23:56;94953.78;;;22.41;54.58
9676;BME280;4876;42.656;23.292;2023-08-12T04:26:23;94948.28;;;22.71;54.27
9676;BME280;4876;42.656;23.292;2023-08-12T04:28:50;94950.47;;;22.55;54.66
9676;BME280;4876;42.656;23.292;2023-08-12T04:31:18;94948.56;;;22.55;54.33
9676;BME280;4876;42.656;23.292;2023-08-12T04:33:44;94951.19;;;21.74;57.42
9676;BME280;4876;42.656;23.292;2023-08-12T04:36:11;94952.13;;;21.92;56.02
9676;BME280;4876;42.656;23.292;2023-08-12T04:38:39;94954.56;;;22.04;55.77
9676;BME280;4876;42.656;23.292;2023-08-12T04:41:05;94956.50;;;22.45;52.48
9676;BME280;4876;42.656;23.292;2023-08-12T04:43:32;94954.69;;;22.60;51.37
9676;BME280;4876;42.656;23.292;2023-08-12T04:45:59;94954.59;;;22.45;51.44
9676;BME280;4876;42.656;23.292;2023-08-12T04:48:27;94954.81;;;22.26;51.65
9676;BME280;4876;42.656;23.292;2023-08-12T04:50:54;94955.16;;;22.69;50.89
9676;BME280;4876;42.656;23.292;2023-08-12T04:53:25;94956.72;;;23.25;50.65
9676;BME280;4876;42.656;23.292;2023-08-12T04:55:53;94957.97;;;23.42;50.00
9676;BME280;4876;42.656;23.292;2023-08-12T04:58:20;94952.53;;;22.28;52.21
9676;BME280;4876;42.656;23.292;2023-08-12T05:00:46;94950.34;;;22.03;53.30
9676;BME280;4876;42.656;23.292;2023-08-12T05:03:13;94951.81;;;21.97;53.23
9676;BME280;4876;42.656;23.292;2023-08-12T05:05:41;94949.81;;;21.87;53.24
9676;BME280;4876;42.656;23.292;2023-08-12T05:08:08;94955.28;;;21.08;55.59
9676;BME280;4876;42.656;23.292;2023-08-12T05:10:36;94960.44;;;20.93;56.04
9676;BME280;4876;42.656;23.292;2023-08-12T05:13:03;94957.56;;;21.06;55.23
9676;BME280;4876;42.656;23.292;2023-08-12T05:15:30;94967.69;;;20.93;55.13
9676;BME280;4876;42.656;23.292;2023-08-12T05:17:56;94961.06;;;20.83;55.73
9676;BME280;4876;42.656;23.292;2023-08-12T05:20:23;94963.22;;;21.01;56.01
9676;BME280;4876;42.656;23.292;2023-08-12T05:22:51;94966.66;;;21.01;55.65
9676;BME280;4876;42.656;23.292;2023-08-12T05:25:18;94965.66;;;20.86;55.71
9676;BME280;4876;42.656;23.292;2023-08-12T05:27:45;94963.81;;;20.64;56.68
9676;BME280;4876;42.656;23.292;2023-08-12T05:30:12;94964.16;;;20.39;57.88
9676;BME280;4876;42.656;23.292;2023-08-12T05:32:39;94963.53;;;20.69;57.31
9676;BME280;4876;42.656;23.292;2023-08-12T05:35:07;94968.94;;;20.30;57.96
9676;BME280;4876;42.656;23.292;2023-08-12T05:37:34;94973.88;;;20.28;58.83
9676;BME280;4876;42.656;23.292;2023-08-12T05:40:02;94973.69;;;20.17;58.46
9676;BME280;4876;42.656;23.292;2023-08-12T05:42:33;94980.34;;;20.47;58.22
9676;BME280;4876;42.656;23.292;2023-08-12T05:45:00;94977.88;;;20.61;57.80
9676;BME280;4876;42.656;23.292;2023-08-12T05:47:27;94977.69;;;20.73;57.68
9676;BME280;4876;42.656;23.292;2023-08-12T05:49:53;94969.38;;;20.78;57.63
9676;BME280;4876;42.656;23.292;2023-08-12T05:52:20;94968.22;;;20.53;57.68
9676;BME280;4876;42.656;23.292;2023-08-12T05:54:47;94978.44;;;20.70;57.20
9676;BME280;4876;42.656;23.292;2023-08-12T05:57:15;94967.84;;;21.04;57.78
9676;BME280;4876;42.656;23.292;2023-08-12T05:59:42;94957.19;;;21.34;56.04
9676;BME280;4876;42.656;23.292;2023-08-12T06:02:09;94962.91;;;21.32;56.69
9676;BME280;4876;42.656;23.292;2023-08-12T06:04:36;94955.97;;;21.58;54.98
9676;BME280;4876;42.656;23.292;2023-08-12T06:07:02;94953.53;;;21.45;55.15
9676;BME280;4876;42.656;23.292;2023-08-12T06:09:29;94957.59;;;21.66;54.47
9676;BME280;4876;42.656;23.292;2023-08-12T06:11:56;94954.66;;;21.44;55.12
9676;BME280;4876;42.656;23.292;2023-08-12T06:14:24;94962.44;;;21.90;54.97
9676;BME280;4876;42.656;23.292;2023-08-12T06:16:51;94952.56;;;21.98;55.16
9676;BME280;4876;42.656;23.292;2023-08-12T06:19:18;94947.50;;;22.23;54.63
9676;BME280;4876;42.656;23.292;2023-08-12T06:21:44;94949.81;;;22.69;52.34
9676;BME280;4876;42.656;23.292;2023-08-12T06:24:11;94953.66;;;22.27;53.20
9676;BME280;4876;42.656;23.292;2023-08-12T06:26:38;94948.44;;;22.04;54.00
9676;BME280;4876;42.656;23.292;2023-08-12T06:29:05;94947.44;;;22.16;53.81
9676;BME280;4876;42.656;23.292;2023-08-12T06:31:33;94951.31;;;22.66;53.58
9676;BME280;4876;42.656;23.292;2023-08-12T06:34:00;94943.56;;;23.09;51.93
9676;BME280;4876;42.656;23.292;2023-08-12T06:36:27;94944.13;;;22.77;51.95
9676;BME280;4876;42.656;23.292;2023-08-12T06:38:54;94939.75;;;23.06;51.30
9676;BME280;4876;42.656;23.292;2023-08-12T06:41:20;94934.28;;;22.44;52.86
9676;BME280;4876;42.656;23.292;2023-08-12T06:43:47;94932.88;;;22.17;54.36
9676;BME280;4876;42.656;23.292;2023-08-12T06:46:14;94935.56;;;22.17;54.78
9676;BME280;4876;42.656;23.292;2023-08-12T06:48:42;94935.72;;;22.31;54.83
9676;BME280;4876;42.656;23.292;2023-08-12T06:51:09;94926.88;;;22.27;53.54
9676;BME280;4876;42.656;23.292;2023-08-12T06:53:37;94929.34;;;22.06;53.81
9676;BME280;4876;42.656;23.292;2023-08-12T06:56:04;94936.81;;;22.74;52.64
9676;BME280;4876;42.656;23.292;2023-08-12T06:58:31;94941.41;;;22.74;51.56
9676;BME280;4876;42.656;23.292;2023-08-12T07:00:58;94941.28;;;23.07;51.17
9676;BME280;4876;42.656;23.292;2023-08-12T07:03:25;94926.88;;;22.75;51.89
9676;BME280;4876;42.656;23.292;2023-08-12T07:05:54;94931.63;;;23.72;50.05
9676;BME280;4876;42.656;23.292;2023-08-12T07:08:20;94925.44;;;23.61;50.51
9676;BME280;4876;42.656;23.292;2023-08-12T07:10:47;94929.69;;;23.69;50.49
9676;BME280;4876;42.656;23.292;2023-08-12T07:13:14;94930.09;;;23.68;50.69
9676;BME280;4876;42.656;23.292;2023-08-12T07:15:41;94927.47;;;23.96;49.62
9676;BME280;4876;42.656;23.292;2023-08-12T07:18:08;94932.88;;;24.07;48.23
9676;BME280;4876;42.656;23.292;2023-08-12T07:20:34;94936.31;;;24.00;49.36
9676;BME280;4876;42.656;23.292;2023-08-12T07:23:03;94934.75;;;23.92;46.98
9676;BME280;4876;42.656;23.292;2023-08-12T07:25:30;94937.84;;;23.94;47.62
9676;BME280;4876;42.656;23.292;2023-08-12T07:27:57;94937.44;;;23.96;47.17
9676;BME280;4876;42.656;23.292;2023-08-12T07:30:24;94935.53;;;23.93;48.30
9676;BME280;4876;42.656;23.292;2023-08-12T07:32:51;94932.44;;;23.87;48.68
9676;BME280;4876;42.656;23.292;2023-08-12T07:35:17;94929.78;;;23.94;49.01
9676;BME280;4876;42.656;23.292;2023-08-12T07:37:44;94927.81;;;23.84;49.49
9676;BME280;4876;42.656;23.292;2023-08-12T07:40:12;94922.09;;;23.96;49.65
9676;BME280;4876;42.656;23.292;2023-08-12T07:42:39;94926.78;;;24.38;48.36
9676;BME280;4876;42.656;23.292;2023-08-12T07:45:08;94921.81;;;24.44;47.97
9676;BME280;4876;42.656;23.292;2023-08-12T07:47:34;94925.28;;;24.48;48.57
9676;BME280;4876;42.656;23.292;2023-08-12T07:50:01;94916.41;;;24.23;48.43
9676;BME280;4876;42.656;23.292;2023-08-12T07:52:28;94918.69;;;24.28;48.14
9676;BME280;4876;42.656;23.292;2023-08-12T07:54:55;94922.13;;;24.21;47.53
9676;BME280;4876;42.656;23.292;2023-08-12T07:57:23;94916.78;;;24.53;47.44
9676;BME280;4876;42.656;23.292;2023-08-12T07:59:50;94914.50;;;24.55;46.70
9676;BME280;4876;42.656;23.292;2023-08-12T08:02:17;94915.66;;;24.61;46.91
9676;BME280;4876;42.656;23.292;2023-08-12T08:04:44;94913.28;;;24.06;48.50
9676;BME280;4876;42.656;23.292;2023-08-12T08:07:14;94914.50;;;24.48;47.48
9676;BME280;4876;42.656;23.292;2023-08-12T08:09:41;94909.88;;;24.38;46.95
9676;BME280;4876;42.656;23.292;2023-08-12T08:12:09;94902.50;;;23.81;47.98
9676;BME280;4876;42.656;23.292;2023-08-12T08:14:37;94900.22;;;23.87;47.67
9676;BME280;4876;42.656;23.292;2023-08-12T08:17:04;94907.00;;;23.56;48.64
9676;BME280;4876;42.656;23.292;2023-08-12T08:19:31;94904.28;;;23.52;49.47
9676;BME280;4876;42.656;23.292;2023-08-12T08:21:58;94902.47;;;23.71;49.16
9676;BME280;4876;42.656;23.292;2023-08-12T08:24:25;94902.94;;;24.23;47.96
9676;BME280;4876;42.656;23.292;2023-08-12T08:26:52;94907.53;;;24.18;48.09
9676;BME280;4876;42.656;23.292;2023-08-12T08:29:18;94908.69;;;24.14;47.55
9676;BME280;4876;42.656;23.292;2023-08-12T08:31:47;94901.75;;;23.88;48.27
9676;BME280;4876;42.656;23.292;2023-08-12T08:34:14;94900.16;;;23.62;47.93
9676;BME280;4876;42.656;23.292;2023-08-12T08:36:41;94901.69;;;23.67;48.39
9676;BME280;4876;42.656;23.292;2023-08-12T08:39:08;94898.66;;;23.79;48.07
9676;BME280;4876;42.656;23.292;2023-08-12T08:41:38;94890.94;;;23.67;47.66
9676;BME280;4876;42.656;23.292;2023-08-12T08:44:07;94899.72;;;23.56;47.80
9676;BME280;4876;42.656;23.292;2023-08-12T08:46:34;94895.56;;;23.73;47.24
9676;BME280;4876;42.656;23.292;2023-08-12T08:49:04;94893.69;;;24.02;47.85
9676;BME280;4876;42.656;23.292;2023-08-12T08:51:31;94886.03;;;24.01;47.96
9676;BME280;4876;42.656;23.292;2023-08-12T08:53:58;94883.34;;;24.01;47.61
9676;BME280;4876;42.656;23.292;2023-08-12T08:56:25;94891.03;;;24.24;47.03
9676;BME280;4876;42.656;23.292;2023-08-12T08:58:52;94886.78;;;24.08;47.52
9676;BME280;4876;42.656;23.292;2023-08-12T09:01:20;94891.00;;;23.88;46.15
9676;BME280;4876;42.656;23.292;2023-08-12T09:03:49;94885.63;;;23.95;46.41
9676;BME280;4876;42.656;23.292;2023-08-12T09:06:20;94876.44;;;24.00;46.41
9676;BME280;4876;42.656;23.292;2023-08-12T09:08:48;94880.66;;;24.15;47.16
9676;BME280;4876;42.656;23.292;2023-08-12T09:11:17;94872.63;;;24.36;46.31
9676;BME280;4876;42.656;23.292;2023-08-12T09:13:44;94873.78;;;24.42;46.26
9676;BME280;4876;42.656;23.292;2023-08-12T09:16:11;94854.94;;;24.46;45.53
9676;BME280;4876;42.656;23.292;2023-08-12T09:18:39;94876.47;;;24.39;45.54
9676;BME280;4876;42.656;23.292;2023-08-12T09:21:06;94879.91;;;24.25;46.48
9676;BME280;4876;42.656;23.292;2023-08-12T09:23:36;94872.59;;;24.04;46.68
9676;BME280;4876;42.656;23.292;2023-08-12T09:26:12;94874.50;;;23.93;46.81
9676;BME280;4876;42.656;23.292;2023-08-12T09:28:39;94873.00;;;24.10;46.65
9676;BME280;4876;42.656;23.292;2023-08-12T09:31:05;94851.09;;;24.29;46.53
9676;BME280;4876;42.656;23.292;2023-08-12T09:33:32;94855.34;;;24.66;45.74
9676;BME280;4876;42.656;23.292;2023-08-12T09:36:05;94852.19;;;24.92;46.30
9676;BME280;4876;42.656;23.292;2023-08-12T09:38:31;94844.94;;;24.64;45.71
9676;BME280;4876;42.656;23.292;2023-08-12T09:41:00;94852.25;;;24.46;46.46
9676;BME280;4876;42.656;23.292;2023-08-12T09:43:28;94844.19;;;24.57;46.20
9676;BME280;4876;42.656;23.292;2023-08-12T09:45:56;94843.41;;;24.53;46.10
9676;BME280;4876;42.656;23.292;2023-08-12T09:48:24;94848.44;;;24.54;46.15
9676;BME280;4876;42.656;23.292;2023-08-12T09:50:52;94836.47;;;24.77;44.99
9676;BME280;4876;42.656;23.292;2023-08-12T09:53:19;94842.97;;;24.86;45.24
9676;BME280;4876;42.656;23.292;2023-08-12T09:55:47;94836.38;;;25.12;44.84
9676;BME280;4876;42.656;23.292;2023-08-12T09:58:17;94840.06;;;25.50;45.03
9676;BME280;4876;42.656;23.292;2023-08-12T10:00:45;94829.53;;;25.77;45.01
9676;BME280;4876;42.656;23.292;2023-08-12T10:03:13;94821.72;;;25.94;44.77
9676;BME280;4876;42.656;23.292;2023-08-12T10:05:40;94822.31;;;25.60;45.05
9676;BME280;4876;42.656;23.292;2023-08-12T10:08:09;94812.47;;;25.95;44.10
9676;BME280;4876;42.656;23.292;2023-08-12T10:10:36;94810.66;;;25.77;43.98
9676;BME280;4876;42.656;23.292;2023-08-12T10:13:03;94818.72;;;25.85;42.93
9676;BME280;4876;42.656;23.292;2023-08-12T10:15:34;94815.31;;;25.73;42.77
9676;BME280;4876;42.656;23.292;2023-08-12T10:18:03;94811.88;;;25.66;42.99
9676;BME280;4876;42.656;23.292;2023-08-12T10:20:31;94815.34;;;25.63;43.00
9676;BME280;4876;42.656;23.292;2023-08-12T10:22:59;94814.06;;;25.89;42.27
9676;BME280;4876;42.656;23.292;2023-08-12T10:25:31;94803.41;;;26.19;42.19
9676;BME280;4876;42.656;23.292;2023-08-12T10:27:58;94812.75;;;26.11;42.04
9676;BME280;4876;42.656;23.292;2023-08-12T10:30:28;94801.47;;;25.71;42.70
9676;BME280;4876;42.656;23.292;2023-08-12T10:32:58;94802.56;;;25.85;42.41
9676;BME280;4876;42.656;23.292;2023-08-12T10:35:40;94797.41;;;26.01;42.63
9676;BME280;4876;42.656;23.292;2023-08-12T10:38:08;94802.38;;;26.06;41.92
9676;BME280;4876;42.656;23.292;2023-08-12T10:40:34;94796.50;;;26.18;41.43
9676;BME280;4876;42.656;23.292;2023-08-12T10:43:01;94790.84;;;26.02;41.12
9676;BME280;4876;42.656;23.292;2023-08-12T10:45:42;94788.59;;;25.97;41.63
9676;BME280;4876;42.656;23.292;2023-08-12T10:48:17;94793.00;;;25.69;42.00
9676;BME280;4876;42.656;23.292;2023-08-12T10:50:45;94784.50;;;25.78;42.33
9676;BME280;4876;42.656;23.292;2023-08-12T10:53:22;94781.06;;;25.74;42.53
9676;BME280;4876;42.656;23.292;2023-08-12T10:55:50;94775.16;;;25.90;41.99
9676;BME280;4876;42.656;23.292;2023-08-12T10:58:24;94776.16;;;26.10;40.42
9676;BME280;4876;42.656;23.292;2023-08-12T11:00:54;94778.13;;;26.06;40.67
9676;BME280;4876;42.656;23.292;2023-08-12T11:03:22;94757.06;;;26.31;41.63
9676;BME280;4876;42.656;23.292;2023-08-12T11:05:49;94769.31;;;26.47;40.52
9676;BME280;4876;42.656;23.292;2023-08-12T11:08:24;94746.16;;;26.46;40.06
9676;BME280;4876;42.656;23.292;2023-08-12T11:10:54;94771.41;;;26.66;39.83
9676;BME280;4876;42.656;23.292;2023-08-12T11:13:21;94765.00;;;26.87;40.07
9676;BME280;4876;42.656;23.292;2023-08-12T11:15:48;94761.00;;;26.99;40.46
9676;BME280;4876;42.656;23.292;2023-08-12T11:18:16;94760.53;;;26.73;39.76
9676;BME280;4876;42.656;23.292;2023-08-12T11:20:45;94754.78;;;26.71;40.04
9676;BME280;4876;42.656;23.292;2023-08-12T11:23:13;94746.72;;;26.68;39.96
9676;BME280;4876;42.656;23.292;2023-08-12T11:25:42;94758.88;;;26.49;40.86
9676;BME280;4876;42.656;23.292;2023-08-12T11:28:10;94756.25;;;26.38;40.80
9676;BME280;4876;42.656;23.292;2023-08-12T11:30:36;94769.47;;;26.25;39.74
9676;BME280;4876;42.656;23.292;2023-08-12T11:33:06;94751.50;;;26.08;39.61
9676;BME280;4876;42.656;23.292;2023-08-12T11:35:34;94719.38;;;25.87;39.19
9676;BME280;4876;42.656;23.292;2023-08-12T11:38:05;94751.41;;;26.19;39.17
9676;BME280;4876;42.656;23.292;2023-08-12T11:40:32;94754.28;;;26.01;39.09
9676;BME280;4876;42.656;23.292;2023-08-12T11:42:58;94747.28;;;26.07;38.51
9676;BME280;4876;42.656;23.292;2023-08-12T11:45:26;94745.53;;;26.31;39.13
9676;BME280;4876;42.656;23.292;2023-08-12T11:47:54;94732.16;;;26.20;37.00
9676;BME280;4876;42.656;23.292;2023-08-12T11:50:23;94740.91;;;26.69;36.33
9676;BME280;4876;42.656;23.292;2023-08-12T11:52:51;94731.63;;;27.04;36.88
9676;BME280;4876;42.656;23.292;2023-08-12T11:55:20;94737.13;;;26.97;37.49
9676;BME280;4876;42.656;23.292;2023-08-12T11:57:47;94739.94;;;27.21;37.69
9676;BME280;4876;42.656;23.292;2023-08-12T12:00:14;94699.88;;;26.51;38.30
9676;BME280;4876;42.656;23.292;2023-08-12T12:02:46;94734.28;;;26.77;38.59
9676;BME280;4876;42.656;23.292;2023-08-12T12:05:14;94724.81;;;26.62;37.05
9676;BME280;4876;42.656;23.292;2023-08-12T12:07:41;94735.41;;;26.80;37.63
9676;BME280;4876;42.656;23.292;2023-08-12T12:10:12;94734.88;;;26.89;36.57
9676;BME280;4876;42.656;23.292;2023-08-12T12:12:44;94734.72;;;26.72;36.54
9676;BME280;4876;42.656;23.292;2023-08-12T12:15:12;94705.13;;;26.65;36.76
9676;BME280;4876;42.656;23.292;2023-08-12T12:17:39;94718.00;;;26.84;36.57
9676;BME280;4876;42.656;23.292;2023-08-12T12:20:07;94720.28;;;26.86;36.33
9676;BME280;4876;42.656;23.292;2023-08-12T12:22:47;94725.19;;;27.25;36.95
9676;BME280;4876;42.656;23.292;2023-08-12T12:25:15;94716.78;;;27.20;37.11
9676;BME280;4876;42.656;23.292;2023-08-12T12:27:46;94726.88;;;27.16;37.67
9676;BME280;4876;42.656;23.292;2023-08-12T12:30:14;94729.16;;;27.17;38.22
9676;BME280;4876;42.656;23.292;2023-08-12T12:32:42;94731.50;;;27.15;38.81
9676;BME280;4876;42.656;23.292;2023-08-12T12:35:08;94729.13;;;26.56;38.39
9676;BME280;4876;42.656;23.292;2023-08-12T12:37:36;94713.03;;;26.45;38.39
9676;BME280;4876;42.656;23.292;2023-08-12T12:40:03;94718.66;;;26.20;39.31
9676;BME280;4876;42.656;23.292;2023-08-12T12:42:32;94722.53;;;26.19;39.00
9676;BME280;4876;42.656;23.292;2023-08-12T12:45:01;94716.44;;;26.15;39.09
9676;BME280;4876;42.656;23.292;2023-08-12T12:47:28;94716.34;;;26.22;39.33
9676;BME280;4876;42.656;23.292;2023-08-12T12:49:55;94716.28;;;26.29;39.64
9676;BME280;4876;42.656;23.292;2023-08-12T12:52:22;94717.31;;;26.39;39.37
9676;BME280;4876;42.656;23.292;2023-08-12T12:54:49;94709.34;;;26.28;38.87
9676;BME280;4876;42.656;23.292;2023-08-12T12:57:16;94700.13;;;26.26;38.96
9676;BME280;4876;42.656;23.292;2023-08-12T12:59:43;94705.31;;;26.47;39.37
9676;BME280;4876;42.656;23.292;2023-08-12T13:02:12;94703.94;;;26.66;39.00
9676;BME280;4876;42.656;23.292;2023-08-12T13:04:40;94690.47;;;26.66;38.38
9676;BME280;4876;42.656;23.292;2023-08-12T13:07:08;94692.53;;;26.86;39.37
9676;BME280;4876;42.656;23.292;2023-08-12T13:09:34;94694.50;;;27.12;39.61
9676;BME280;4876;42.656;23.292;2023-08-12T13:12:01;94698.34;;;27.42;38.71